sensor_id;sensor_type;location;lat;lon;timestamp;temperature;humidity
27368;DHT22;14839;48.106;11.618;2023-09-12T04:00:45;16.30;94.60
27368;DHT22;14839;48.106;11.618;2023-09-12T04:03:11;16.30;94.60
27368;DHT22;14839;48.106;11.618;2023-09-12T04:05:37;16.30;94.60
27368;DHT22;14839;48.106;11.618;2023-09-12T04:08:03;16.30;94.60
27368;DHT22;14839;48.106;11.618;2023-09-12T04:10:28;16.30;94.60
27368;DHT22;14839;48.106;11.618;2023-09-12T04:12:54;16.30;94.60
27368;DHT22;14839;48.106;11.618;2023-09-12T04:15:19;16.30;94.60
27368;DHT22;14839;48.106;11.618;2023-09-12T04:17:45;16.30;94.60
27368;DHT22;14839;48.106;11.618;2023-09-12T04:20:11;16.20;94.60
27368;DHT22;14839;48.106;11.618;2023-09-12T04:22:40;16.20;94.60
27368;DHT22;14839;48.106;11.618;2023-09-12T04:25:06;16.20;94.60
27368;DHT22;14839;48.106;11.618;2023-09-12T04:27:32;16.20;94.60
27368;DHT22;14839;48.106;11.618;2023-09-12T04:29:59;16.20;94.60
27368;DHT22;14839;48.106;11.618;2023-09-12T04:32:25;16.20;94.60
27368;DHT22;14839;48.106;11.618;2023-09-12T04:34:50;16.20;94.60
27368;DHT22;14839;48.106;11.618;2023-09-12T04:37:16;16.20;94.60
27368;DHT22;14839;48.106;11.618;2023-09-12T04:39:42;16.20;94.60
27368;DHT22;14839;48.106;11.618;2023-09-12T04:42:07;16.20;94.60
27368;DHT22;14839;48.106;11.618;2023-09-12T04:44:38;16.10;94.60
27368;DHT22;14839;48.106;11.618;2023-09-12T04:47:04;16.10;94.60
27368;DHT22;14839;48.106;11.618;2023-09-12T04:49:30;16.10;94.60
27368;DHT22;14839;48.106;11.618;2023-09-12T04:51:55;16.20;94.60
27368;DHT22;14839;48.106;11.618;2023-09-12T04:54:21;16.20;94.60
27368;DHT22;14839;48.106;11.618;2023-09-12T04:56:47;16.20;94.60
27368;DHT22;14839;48.106;11.618;2023-09-12T04:59:12;16.20;94.60
27368;DHT22;14839;48.106;11.618;2023-09-12T05:01:38;16.20;94.60
27368;DHT22;14839;48.106;11.618;2023-09-12T05:04:04;16.20;94.60
27368;DHT22;14839;48.106;11.618;2023-09-12T05:06:29;16.20;94.60
27368;DHT22;14839;48.106;11.618;2023-09-12T05:08:55;16.20;94.60
27368;DHT22;14839;48.106;11.618;2023-09-12T05:11:22;16.20;94.60
27368;DHT22;14839;48.106;11.618;2023-09-12T05:13:49;16.20;94.60
27368;DHT22;14839;48.106;11.618;2023-09-12T05:16:15;16.20;94.60
27368;DHT22;14839;48.106;11.618;2023-09-12T05:18:40;16.20;94.60
27368;DHT22;14839;48.106;11.618;2023-09-12T05:21:06;16.30;94.60
27368;DHT22;14839;48.106;11.618;2023-09-12T05:23:31;16.40;94.60
27368;DHT22;14839;48.106;11.618;2023-09-12T05:25:57;16.40;94.60
27368;DHT22;14839;48.106;11.618;2023-09-12T05:28:23;16.50;94.60
27368;DHT22;14839;48.106;11.618;2023-09-12T05:30:48;16.60;94.60
27368;DHT22;14839;48.106;11.618;2023-09-12T05:33:14;16.80;94.60
27368;DHT22;14839;48.106;11.618;2023-09-12T05:35:40;16.90;94.60
27368;DHT22;14839;48.106;11.618;2023-09-12T05:38:05;17.00;94.60
27368;DHT22;14839;48.106;11.618;2023-09-12T05:40:31;17.10;94.60
27368;DHT22;14839;48.106;11.618;2023-09-12T05:42:56;17.30;94.60
27368;DHT22;14839;48.106;11.618;2023-09-12T05:45:22;17.30;94.60
27368;DHT22;14839;48.106;11.618;2023-09-12T05:47:48;17.40;94.60
27368;DHT22;14839;48.106;11.618;2023-09-12T05:50:15;17.50;94.60
27368;DHT22;14839;48.106;11.618;2023-09-12T05:52:41;17.70;94.60
27368;DHT22;14839;48.106;11.618;2023-09-12T05:55:08;18.00;94.60
27368;DHT22;14839;48.106;11.618;2023-09-12T05:57:34;18.40;94.60
27368;DHT22;14839;48.106;11.618;2023-09-12T06:00:00;19.50;94.60
27368;DHT22;14839;48.106;11.618;2023-09-12T06:02:27;20.80;94.60
27368;DHT22;14839;48.106;11.618;2023-09-12T06:04:52;21.90;92.40
27368;DHT22;14839;48.106;11.618;2023-09-12T06:07:18;22.90;89.50
27368;DHT22;14839;48.106;11.618;2023-09-12T06:09:44;23.90;84.50
27368;DHT22;14839;48.106;11.618;2023-09-12T06:12:10;24.80;80.00
27368;DHT22;14839;48.106;11.618;2023-09-12T06:14:36;25.70;75.80
27368;DHT22;14839;48.106;11.618;2023-09-12T06:17:01;26.20;73.70
27368;DHT22;14839;48.106;11.618;2023-09-12T06:19:27;26.70;71.90
27368;DHT22;14839;48.106;11.618;2023-09-12T06:21:53;26.80;71.20
27368;DHT22;14839;48.106;11.618;2023-09-12T06:24:22;26.90;71.50
27368;DHT22;14839;48.106;11.618;2023-09-12T06:26:48;27.10;70.10
27368;DHT22;14839;48.106;11.618;2023-09-12T06:29:14;27.00;69.80
27368;DHT22;14839;48.106;11.618;2023-09-12T06:31:40;26.90;70.00
27368;DHT22;14839;48.106;11.618;2023-09-12T06:34:09;26.50;73.00
27368;DHT22;14839;48.106;11.618;2023-09-12T06:36:35;27.50;69.20
27368;DHT22;14839;48.106;11.618;2023-09-12T06:39:01;27.70;68.30
27368;DHT22;14839;48.106;11.618;2023-09-12T06:41:27;28.20;67.40
27368;DHT22;14839;48.106;11.618;2023-09-12T06:43:53;27.90;69.10
27368;DHT22;14839;48.106;11.618;2023-09-12T06:46:19;28.20;68.50
27368;DHT22;14839;48.106;11.618;2023-09-12T06:48:48;28.30;67.60
27368;DHT22;14839;48.106;11.618;2023-09-12T06:51:16;28.20;68.60
27368;DHT22;14839;48.106;11.618;2023-09-12T06:53:41;28.30;68.30
27368;DHT22;14839;48.106;11.618;2023-09-12T06:56:07;28.30;68.90
27368;DHT22;14839;48.106;11.618;2023-09-12T06:58:33;28.40;69.40
27368;DHT22;14839;48.106;11.618;2023-09-12T07:01:03;28.50;68.20
27368;DHT22;14839;48.106;11.618;2023-09-12T07:03:30;28.70;69.50
27368;DHT22;14839;48.106;11.618;2023-09-12T07:05:55;28.60;69.40
27368;DHT22;14839;48.106;11.618;2023-09-12T07:08:21;28.90;69.70
27368;DHT22;14839;48.106;11.618;2023-09-12T07:10:47;29.20;67.00
27368;DHT22;14839;48.106;11.618;2023-09-12T07:13:12;29.40;68.30
27368;DHT22;14839;48.106;11.618;2023-09-12T07:15:38;29.40;66.50
27368;DHT22;14839;48.106;11.618;2023-09-12T07:18:04;29.40;69.40
27368;DHT22;14839;48.106;11.618;2023-09-12T07:20:32;29.50;68.00
27368;DHT22;14839;48.106;11.618;2023-09-12T07:22:57;29.70;67.30
27368;DHT22;14839;48.106;11.618;2023-09-12T07:25:23;29.60;64.60
27368;DHT22;14839;48.106;11.618;2023-09-12T07:27:50;29.40;66.50
27368;DHT22;14839;48.106;11.618;2023-09-12T07:30:15;29.50;65.20
27368;DHT22;14839;48.106;11.618;2023-09-12T07:32:41;29.40;69.10
27368;DHT22;14839;48.106;11.618;2023-09-12T07:35:07;29.30;67.90
27368;DHT22;14839;48.106;11.618;2023-09-12T07:37:33;29.60;65.90
27368;DHT22;14839;48.106;11.618;2023-09-12T07:39:58;29.60;67.40
27368;DHT22;14839;48.106;11.618;2023-09-12T07:42:24;29.60;67.10
27368;DHT22;14839;48.106;11.618;2023-09-12T07:44:50;29.70;68.20
27368;DHT22;14839;48.106;11.618;2023-09-12T07:47:15;29.80;65.90
27368;DHT22;14839;48.106;11.618;2023-09-12T07:49:41;29.90;67.10
27368;DHT22;14839;48.106;11.618;2023-09-12T07:52:07;30.00;64.70
27368;DHT22;14839;48.106;11.618;2023-09-12T07:54:33;30.00;65.90
27368;DHT22;14839;48.106;11.618;2023-09-12T07:56:58;30.10;65.30
27368;DHT22;14839;48.106;11.618;2023-09-12T07:59:24;30.20;67.30
27368;DHT22;14839;48.106;11.618;2023-09-12T08:01:50;30.10;64.70
27368;DHT22;14839;48.106;11.618;2023-09-12T08:04:17;30.10;66.10
27368;DHT22;14839;48.106;11.618;2023-09-12T08:06:43;30.10;67.60
27368;DHT22;14839;48.106;11.618;2023-09-12T08:09:09;30.30;62.80
27368;DHT22;14839;48.106;11.618;2023-09-12T08:11:35;30.30;65.80
27368;DHT22;14839;48.106;11.618;2023-09-12T08:14:01;30.50;64.40
27368;DHT22;14839;48.106;11.618;2023-09-12T08:16:27;30.30;65.50
27368;DHT22;14839;48.106;11.618;2023-09-12T08:18:52;30.50;65.50
27368;DHT22;14839;48.106;11.618;2023-09-12T08:21:18;30.90;61.70
27368;DHT22;14839;48.106;11.618;2023-09-12T08:23:44;31.20;60.20
27368;DHT22;14839;48.106;11.618;2023-09-12T08:26:10;31.10;63.40
27368;DHT22;14839;48.106;11.618;2023-09-12T08:28:36;31.10;64.10
27368;DHT22;14839;48.106;11.618;2023-09-12T08:31:02;30.90;63.40
27368;DHT22;14839;48.106;11.618;2023-09-12T08:33:27;31.00;62.30
27368;DHT22;14839;48.106;11.618;2023-09-12T08:35:53;31.10;62.30
27368;DHT22;14839;48.106;11.618;2023-09-12T08:38:19;31.10;63.20
27368;DHT22;14839;48.106;11.618;2023-09-12T08:40:49;31.10;63.10
27368;DHT22;14839;48.106;11.618;2023-09-12T08:43:15;31.10;62.30
27368;DHT22;14839;48.106;11.618;2023-09-12T08:45:41;31.10;62.90
27368;DHT22;14839;48.106;11.618;2023-09-12T08:48:10;31.20;62.60
27368;DHT22;14839;48.106;11.618;2023-09-12T08:50:36;31.40;63.20
27368;DHT22;14839;48.106;11.618;2023-09-12T08:53:03;31.50;63.10
27368;DHT22;14839;48.106;11.618;2023-09-12T08:55:29;31.60;61.70
27368;DHT22;14839;48.106;11.618;2023-09-12T08:57:55;31.60;60.70
27368;DHT22;14839;48.106;11.618;2023-09-12T09:00:22;31.70;60.80
27368;DHT22;14839;48.106;11.618;2023-09-12T09:02:48;31.50;61.00
27368;DHT22;14839;48.106;11.618;2023-09-12T09:05:16;31.40;60.80
27368;DHT22;14839;48.106;11.618;2023-09-12T09:07:43;31.50;60.40
27368;DHT22;14839;48.106;11.618;2023-09-12T09:10:16;31.40;61.60
27368;DHT22;14839;48.106;11.618;2023-09-12T09:12:44;31.40;61.00
27368;DHT22;14839;48.106;11.618;2023-09-12T09:15:21;31.60;59.50
27368;DHT22;14839;48.106;11.618;2023-09-12T09:17:48;31.80;58.50
27368;DHT22;14839;48.106;11.618;2023-09-12T09:20:33;31.90;58.80
27368;DHT22;14839;48.106;11.618;2023-09-12T09:23:07;31.80;60.00
27368;DHT22;14839;48.106;11.618;2023-09-12T09:25:39;31.60;58.80
27368;DHT22;14839;48.106;11.618;2023-09-12T09:28:05;31.60;60.70
27368;DHT22;14839;48.106;11.618;2023-09-12T09:30:45;31.80;59.40
27368;DHT22;14839;48.106;11.618;2023-09-12T09:33:12;31.70;60.50
27368;DHT22;14839;48.106;11.618;2023-09-12T09:35:38;31.50;60.00
27368;DHT22;14839;48.106;11.618;2023-09-12T09:38:07;31.30;61.40
27368;DHT22;14839;48.106;11.618;2023-09-12T09:40:34;31.60;60.70
27368;DHT22;14839;48.106;11.618;2023-09-12T09:43:01;31.80;59.20
27368;DHT22;14839;48.106;11.618;2023-09-12T09:45:30;31.90;59.10
27368;DHT22;14839;48.106;11.618;2023-09-12T09:47:58;32.00;59.20
27368;DHT22;14839;48.106;11.618;2023-09-12T09:50:29;32.10;59.10
27368;DHT22;14839;48.106;11.618;2023-09-12T09:52:55;32.10;59.20
27368;DHT22;14839;48.106;11.618;2023-09-12T09:55:23;31.60;57.30
27368;DHT22;14839;48.106;11.618;2023-09-12T09:57:49;31.50;58.40
27368;DHT22;14839;48.106;11.618;2023-09-12T10:00:18;31.60;59.50
27368;DHT22;14839;48.106;11.618;2023-09-12T10:02:45;31.40;60.00
27368;DHT22;14839;48.106;11.618;2023-09-12T10:05:11;31.60;58.80
27368;DHT22;14839;48.106;11.618;2023-09-12T10:07:40;31.70;57.50
27368;DHT22;14839;48.106;11.618;2023-09-12T10:10:07;31.30;56.90
27368;DHT22;14839;48.106;11.618;2023-09-12T10:12:39;30.80;58.50
27368;DHT22;14839;48.106;11.618;2023-09-12T10:15:09;30.70;60.40
27368;DHT22;14839;48.106;11.618;2023-09-12T10:17:39;30.80;59.70
27368;DHT22;14839;48.106;11.618;2023-09-12T10:20:12;30.30;55.80
27368;DHT22;14839;48.106;11.618;2023-09-12T10:23:08;29.70;59.50
27368;DHT22;14839;48.106;11.618;2023-09-12T10:25:36;29.70;60.40
27368;DHT22;14839;48.106;11.618;2023-09-12T10:28:06;29.80;60.10
27368;DHT22;14839;48.106;11.618;2023-09-12T10:30:32;30.20;60.20
27368;DHT22;14839;48.106;11.618;2023-09-12T10:33:01;30.40;61.90
27368;DHT22;14839;48.106;11.618;2023-09-12T10:35:28;30.50;60.70
27368;DHT22;14839;48.106;11.618;2023-09-12T10:37:55;30.80;57.50
27368;DHT22;14839;48.106;11.618;2023-09-12T10:40:24;30.80;57.60
27368;DHT22;14839;48.106;11.618;2023-09-12T10:42:52;30.70;60.80
27368;DHT22;14839;48.106;11.618;2023-09-12T10:45:20;30.60;60.00
27368;DHT22;14839;48.106;11.618;2023-09-12T10:47:46;30.60;61.90
27368;DHT22;14839;48.106;11.618;2023-09-12T10:50:12;30.60;59.50
27368;DHT22;14839;48.106;11.618;2023-09-12T10:52:38;30.50;59.40
27368;DHT22;14839;48.106;11.618;2023-09-12T10:55:05;30.10;58.70
27368;DHT22;14839;48.106;11.618;2023-09-12T10:57:31;30.10;58.40
27368;DHT22;14839;48.106;11.618;2023-09-12T11:02:31;30.40;57.50
27368;DHT22;14839;48.106;11.618;2023-09-12T11:04:58;30.60;58.90
27368;DHT22;14839;48.106;11.618;2023-09-12T11:07:45;30.70;56.40
27368;DHT22;14839;48.106;11.618;2023-09-12T11:12:47;30.60;56.70
27368;DHT22;14839;48.106;11.618;2023-09-12T11:15:14;30.60;58.40
27368;DHT22;14839;48.106;11.618;2023-09-12T11:17:44;30.70;58.20
27368;DHT22;14839;48.106;11.618;2023-09-12T11:20:11;30.70;54.20
27368;DHT22;14839;48.106;11.618;2023-09-12T11:25:16;30.50;58.40
27368;DHT22;14839;48.106;11.618;2023-09-12T11:30:21;30.50;59.10
27368;DHT22;14839;48.106;11.618;2023-09-12T11:32:53;30.50;56.90
27368;DHT22;14839;48.106;11.618;2023-09-12T11:35:27;30.50;59.10
27368;DHT22;14839;48.106;11.618;2023-09-12T11:37:58;30.30;56.70
27368;DHT22;14839;48.106;11.618;2023-09-12T11:40:40;30.10;57.20
27368;DHT22;14839;48.106;11.618;2023-09-12T11:43:06;30.00;60.80
27368;DHT22;14839;48.106;11.618;2023-09-12T11:45:33;29.90;61.90
27368;DHT22;14839;48.106;11.618;2023-09-12T11:48:19;29.90;61.00
27368;DHT22;14839;48.106;11.618;2023-09-12T11:50:53;29.90;63.50
27368;DHT22;14839;48.106;11.618;2023-09-12T11:53:21;30.00;59.10
27368;DHT22;14839;48.106;11.618;2023-09-12T11:55:53;29.90;58.80
27368;DHT22;14839;48.106;11.618;2023-09-12T11:58:20;30.00;58.50
27368;DHT22;14839;48.106;11.618;2023-09-12T12:00:47;30.00;59.80
27368;DHT22;14839;48.106;11.618;2023-09-12T12:03:14;30.00;61.00
27368;DHT22;14839;48.106;11.618;2023-09-12T12:05:40;30.10;61.40
27368;DHT22;14839;48.106;11.618;2023-09-12T12:08:07;30.30;58.40
27368;DHT22;14839;48.106;11.618;2023-09-12T12:10:34;30.30;58.20
27368;DHT22;14839;48.106;11.618;2023-09-12T12:13:00;30.40;60.00
27368;DHT22;14839;48.106;11.618;2023-09-12T12:15:27;30.50;56.30
27368;DHT22;14839;48.106;11.618;2023-09-12T12:17:56;30.60;57.60
27368;DHT22;14839;48.106;11.618;2023-09-12T12:20:23;30.30;57.30
27368;DHT22;14839;48.106;11.618;2023-09-12T12:22:49;30.00;57.80
27368;DHT22;14839;48.106;11.618;2023-09-12T12:25:18;29.80;57.80
27368;DHT22;14839;48.106;11.618;2023-09-12T12:27:44;29.70;56.70
27368;DHT22;14839;48.106;11.618;2023-09-12T12:30:12;29.80;56.10
27368;DHT22;14839;48.106;11.618;2023-09-12T12:32:42;29.90;57.30
27368;DHT22;14839;48.106;11.618;2023-09-12T12:35:09;29.70;56.40
27368;DHT22;14839;48.106;11.618;2023-09-12T12:37:36;29.80;59.80
27368;DHT22;14839;48.106;11.618;2023-09-12T12:40:02;29.90;58.90
27368;DHT22;14839;48.106;11.618;2023-09-12T12:42:38;30.10;56.90
27368;DHT22;14839;48.106;11.618;2023-09-12T12:45:23;29.80;56.70
27368;DHT22;14839;48.106;11.618;2023-09-12T12:47:59;29.90;57.60
27368;DHT22;14839;48.106;11.618;2023-09-12T12:50:26;29.90;56.60
27368;DHT22;14839;48.106;11.618;2023-09-12T12:52:52;29.90;54.40
27368;DHT22;14839;48.106;11.618;2023-09-12T12:55:21;30.00;57.20
27368;DHT22;14839;48.106;11.618;2023-09-12T12:57:51;30.10;56.60
27368;DHT22;14839;48.106;11.618;2023-09-12T13:00:17;30.00;54.50
27368;DHT22;14839;48.106;11.618;2023-09-12T13:02:44;29.90;52.70
27368;DHT22;14839;48.106;11.618;2023-09-12T13:05:27;29.30;53.50
27368;DHT22;14839;48.106;11.618;2023-09-12T13:07:53;29.40;57.50
27368;DHT22;14839;48.106;11.618;2023-09-12T13:10:19;29.50;54.20
27368;DHT22;14839;48.106;11.618;2023-09-12T13:12:46;29.30;51.90
27368;DHT22;14839;48.106;11.618;2023-09-12T13:15:12;29.40;53.50
27368;DHT22;14839;48.106;11.618;2023-09-12T13:17:39;29.50;53.30
27368;DHT22;14839;48.106;11.618;2023-09-12T13:20:06;29.60;56.30
27368;DHT22;14839;48.106;11.618;2023-09-12T13:22:34;29.70;54.80
27368;DHT22;14839;48.106;11.618;2023-09-12T13:25:00;29.50;52.60
27368;DHT22;14839;48.106;11.618;2023-09-12T13:27:25;29.50;52.60
27368;DHT22;14839;48.106;11.618;2023-09-12T13:29:51;29.70;53.00
27368;DHT22;14839;48.106;11.618;2023-09-12T13:32:16;29.70;54.10
27368;DHT22;14839;48.106;11.618;2023-09-12T13:34:44;29.60;53.20
27368;DHT22;14839;48.106;11.618;2023-09-12T13:37:10;29.60;54.10
27368;DHT22;14839;48.106;11.618;2023-09-12T13:39:35;29.60;54.70
27368;DHT22;14839;48.106;11.618;2023-09-12T13:42:02;29.60;49.30
27368;DHT22;14839;48.106;11.618;2023-09-12T13:44:28;29.60;47.70
27368;DHT22;14839;48.106;11.618;2023-09-12T13:46:54;29.50;49.00
27368;DHT22;14839;48.106;11.618;2023-09-12T13:49:19;29.40;47.60
27368;DHT22;14839;48.106;11.618;2023-09-12T13:51:45;29.30;53.00
27368;DHT22;14839;48.106;11.618;2023-09-12T13:54:11;29.40;53.80
27368;DHT22;14839;48.106;11.618;2023-09-12T13:56:41;29.50;49.20
27368;DHT22;14839;48.106;11.618;2023-09-12T13:59:06;29.50;49.60
27368;DHT22;14839;48.106;11.618;2023-09-12T14:01:32;29.40;48.60
27368;DHT22;14839;48.106;11.618;2023-09-12T14:03:58;29.40;51.10
27368;DHT22;14839;48.106;11.618;2023-09-12T14:06:23;29.60;50.10
27368;DHT22;14839;48.106;11.618;2023-09-12T14:08:49;29.60;49.60
27368;DHT22;14839;48.106;11.618;2023-09-12T14:11:15;29.50;47.40
27368;DHT22;14839;48.106;11.618;2023-09-12T14:13:40;29.40;47.60
27368;DHT22;14839;48.106;11.618;2023-09-12T14:16:06;29.50;47.60
27368;DHT22;14839;48.106;11.618;2023-09-12T14:18:31;29.50;48.00
27368;DHT22;14839;48.106;11.618;2023-09-12T14:20:57;29.50;51.30
27368;DHT22;14839;48.106;11.618;2023-09-12T14:23:23;29.40;54.40
27368;DHT22;14839;48.106;11.618;2023-09-12T14:25:49;29.50;57.30
27368;DHT22;14839;48.106;11.618;2023-09-12T14:28:14;29.30;60.20
27368;DHT22;14839;48.106;11.618;2023-09-12T14:30:40;29.30;61.40
27368;DHT22;14839;48.106;11.618;2023-09-12T14:33:09;29.30;62.00
27368;DHT22;14839;48.106;11.618;2023-09-12T14:35:35;29.40;64.00
27368;DHT22;14839;48.106;11.618;2023-09-12T14:38:01;29.40;62.80
27368;DHT22;14839;48.106;11.618;2023-09-12T14:40:27;29.20;62.60
27368;DHT22;14839;48.106;11.618;2023-09-12T14:42:53;29.00;61.90
27368;DHT22;14839;48.106;11.618;2023-09-12T14:45:19;28.80;62.80
27368;DHT22;14839;48.106;11.618;2023-09-12T14:47:45;28.60;63.70
27368;DHT22;14839;48.106;11.618;2023-09-12T14:50:10;28.70;64.30
27368;DHT22;14839;48.106;11.618;2023-09-12T14:52:36;28.70;63.70
27368;DHT22;14839;48.106;11.618;2023-09-12T14:55:04;28.70;64.10
27368;DHT22;14839;48.106;11.618;2023-09-12T14:57:30;28.80;64.00
27368;DHT22;14839;48.106;11.618;2023-09-12T14:59:55;28.90;63.80
27368;DHT22;14839;48.106;11.618;2023-09-12T15:02:24;29.10;63.70
27368;DHT22;14839;48.106;11.618;2023-09-12T15:04:49;29.10;64.10
27368;DHT22;14839;48.106;11.618;2023-09-12T15:07:15;29.00;63.40
27368;DHT22;14839;48.106;11.618;2023-09-12T15:09:41;29.00;63.40
27368;DHT22;14839;48.106;11.618;2023-09-12T15:12:06;29.00;64.90
27368;DHT22;14839;48.106;11.618;2023-09-12T15:14:33;29.10;64.60
27368;DHT22;14839;48.106;11.618;2023-09-12T15:16:59;29.10;65.50
27368;DHT22;14839;48.106;11.618;2023-09-12T15:19:25;28.90;64.60
27368;DHT22;14839;48.106;11.618;2023-09-12T15:21:51;28.90;65.90
27368;DHT22;14839;48.106;11.618;2023-09-12T15:24:16;29.00;65.30
27368;DHT22;14839;48.106;11.618;2023-09-12T15:26:42;28.80;64.30
27368;DHT22;14839;48.106;11.618;2023-09-12T15:29:07;28.80;64.70
27368;DHT22;14839;48.106;11.618;2023-09-12T15:31:34;28.80;65.30
27368;DHT22;14839;48.106;11.618;2023-09-12T15:33:59;28.70;65.20
27368;DHT22;14839;48.106;11.618;2023-09-12T15:36:25;28.50;65.00
27368;DHT22;14839;48.106;11.618;2023-09-12T15:38:50;28.40;65.50
27368;DHT22;14839;48.106;11.618;2023-09-12T15:41:17;28.20;66.20
27368;DHT22;14839;48.106;11.618;2023-09-12T15:43:43;28.20;66.50
27368;DHT22;14839;48.106;11.618;2023-09-12T15:46:09;28.20;66.70
27368;DHT22;14839;48.106;11.618;2023-09-12T15:48:34;28.10;66.70
27368;DHT22;14839;48.106;11.618;2023-09-12T15:51:00;28.20;67.00
27368;DHT22;14839;48.106;11.618;2023-09-12T15:53:29;28.20;66.70
27368;DHT22;14839;48.106;11.618;2023-09-12T15:55:55;28.10;67.00
27368;DHT22;14839;48.106;11.618;2023-09-12T15:58:20;27.90;67.70
27368;DHT22;14839;48.106;11.618;2023-09-12T16:00:46;27.70;67.70
27368;DHT22;14839;48.106;11.618;2023-09-12T16:03:12;27.60;68.30
27368;DHT22;14839;48.106;11.618;2023-09-12T16:05:37;27.50;68.50
27368;DHT22;14839;48.106;11.618;2023-09-12T16:08:03;27.40;69.40
27368;DHT22;14839;48.106;11.618;2023-09-12T16:10:29;27.40;68.50
27368;DHT22;14839;48.106;11.618;2023-09-12T16:12:54;27.30;68.50
27368;DHT22;14839;48.106;11.618;2023-09-12T16:15:20;27.30;68.90
27368;DHT22;14839;48.106;11.618;2023-09-12T16:17:46;27.20;69.70
27368;DHT22;14839;48.106;11.618;2023-09-12T16:20:12;27.10;69.20
27368;DHT22;14839;48.106;11.618;2023-09-12T16:22:41;27.00;69.40
27368;DHT22;14839;48.106;11.618;2023-09-12T16:25:07;27.00;69.80
27368;DHT22;14839;48.106;11.618;2023-09-12T16:27:34;27.00;69.50
27368;DHT22;14839;48.106;11.618;2023-09-12T16:30:00;26.90;69.50
27368;DHT22;14839;48.106;11.618;2023-09-12T16:32:28;26.80;70.00
27368;DHT22;14839;48.106;11.618;2023-09-12T16:34:54;26.80;70.10
27368;DHT22;14839;48.106;11.618;2023-09-12T16:37:20;26.80;70.70
27368;DHT22;14839;48.106;11.618;2023-09-12T16:39:46;26.80;71.20
27368;DHT22;14839;48.106;11.618;2023-09-12T16:42:11;26.80;71.60
27368;DHT22;14839;48.106;11.618;2023-09-12T16:44:37;26.60;72.70
27368;DHT22;14839;48.106;11.618;2023-09-12T16:47:03;26.50;73.00
27368;DHT22;14839;48.106;11.618;2023-09-12T16:49:30;26.50;73.60
27368;DHT22;14839;48.106;11.618;2023-09-12T16:51:59;26.50;73.90
27368;DHT22;14839;48.106;11.618;2023-09-12T16:54:24;26.50;74.50
27368;DHT22;14839;48.106;11.618;2023-09-12T16:56:50;26.30;75.10
27368;DHT22;14839;48.106;11.618;2023-09-12T16:59:16;26.20;75.10
27368;DHT22;14839;48.106;11.618;2023-09-12T17:01:41;26.10;75.80
27368;DHT22;14839;48.106;11.618;2023-09-12T17:04:07;26.10;75.80
27368;DHT22;14839;48.106;11.618;2023-09-12T17:06:33;26.10;76.10
27368;DHT22;14839;48.106;11.618;2023-09-12T17:08:59;26.10;75.70
27368;DHT22;14839;48.106;11.618;2023-09-12T17:11:28;26.10;76.30
27368;DHT22;14839;48.106;11.618;2023-09-12T17:13:54;25.90;76.70
27368;DHT22;14839;48.106;11.618;2023-09-12T17:16:19;25.90;77.60
27368;DHT22;14839;48.106;11.618;2023-09-12T17:18:45;25.80;77.50
27368;DHT22;14839;48.106;11.618;2023-09-12T17:21:10;25.60;77.50
27368;DHT22;14839;48.106;11.618;2023-09-12T17:23:36;25.50;77.90
27368;DHT22;14839;48.106;11.618;2023-09-12T17:26:02;25.50;78.40
27368;DHT22;14839;48.106;11.618;2023-09-12T17:28:27;25.30;78.40
27368;DHT22;14839;48.106;11.618;2023-09-12T17:30:53;25.30;78.70
27368;DHT22;14839;48.106;11.618;2023-09-12T17:33:19;25.30;78.20
27368;DHT22;14839;48.106;11.618;2023-09-12T17:35:44;25.30;78.80
27368;DHT22;14839;48.106;11.618;2023-09-12T17:38:10;25.20;79.90
27368;DHT22;14839;48.106;11.618;2023-09-12T17:40:40;25.10;80.60
27368;DHT22;14839;48.106;11.618;2023-09-12T17:43:05;25.10;80.80
27368;DHT22;14839;48.106;11.618;2023-09-12T17:45:36;25.00;81.50
27368;DHT22;14839;48.106;11.618;2023-09-12T17:48:05;24.90;81.80
27368;DHT22;14839;48.106;11.618;2023-09-12T17:50:38;24.80;82.60
27368;DHT22;14839;48.106;11.618;2023-09-12T17:53:04;24.80;83.30
27368;DHT22;14839;48.106;11.618;2023-09-12T17:55:29;24.70;83.50
27368;DHT22;14839;48.106;11.618;2023-09-12T17:57:55;24.70;83.00
27368;DHT22;14839;48.106;11.618;2023-09-12T18:00:22;24.60;83.20
27368;DHT22;14839;48.106;11.618;2023-09-12T18:02:52;24.60;83.60
27368;DHT22;14839;48.106;11.618;2023-09-12T18:05:18;24.60;83.80
27368;DHT22;14839;48.106;11.618;2023-09-12T18:07:44;24.60;83.50
27368;DHT22;14839;48.106;11.618;2023-09-12T18:10:09;24.60;83.50
27368;DHT22;14839;48.106;11.618;2023-09-12T18:12:35;24.60;84.10
27368;DHT22;14839;48.106;11.618;2023-09-12T18:15:01;24.60;84.20
27368;DHT22;14839;48.106;11.618;2023-09-12T18:17:27;24.60;84.50
27368;DHT22;14839;48.106;11.618;2023-09-12T18:19:52;24.50;85.40
27368;DHT22;14839;48.106;11.618;2023-09-12T18:22:18;24.40;85.90
27368;DHT22;14839;48.106;11.618;2023-09-12T18:24:43;24.40;86.90
27368;DHT22;14839;48.106;11.618;2023-09-12T18:27:09;24.30;86.50
27368;DHT22;14839;48.106;11.618;2023-09-12T18:29:35;24.30;86.20
27368;DHT22;14839;48.106;11.618;2023-09-12T18:32:00;24.20;87.10
27368;DHT22;14839;48.106;11.618;2023-09-12T18:34:29;24.20;86.90
27368;DHT22;14839;48.106;11.618;2023-09-12T18:36:54;24.20;86.90
27368;DHT22;14839;48.106;11.618;2023-09-12T18:39:20;24.30;86.50
27368;DHT22;14839;48.106;11.618;2023-09-12T18:41:46;24.20;86.50
27368;DHT22;14839;48.106;11.618;2023-09-12T18:44:12;24.30;85.40
27368;DHT22;14839;48.106;11.618;2023-09-12T18:46:37;24.30;83.30
27368;DHT22;14839;48.106;11.618;2023-09-12T18:49:03;24.40;83.00
27368;DHT22;14839;48.106;11.618;2023-09-12T18:51:29;24.40;82.90
27368;DHT22;14839;48.106;11.618;2023-09-12T18:53:55;24.40;82.70
27368;DHT22;14839;48.106;11.618;2023-09-12T18:56:20;24.40;82.30
27368;DHT22;14839;48.106;11.618;2023-09-12T18:58:46;24.40;82.10
27368;DHT22;14839;48.106;11.618;2023-09-12T19:01:12;24.40;82.40
27368;DHT22;14839;48.106;11.618;2023-09-12T19:03:37;24.30;84.10
27368;DHT22;14839;48.106;11.618;2023-09-12T19:06:05;24.20;85.90
27368;DHT22;14839;48.106;11.618;2023-09-12T19:08:32;24.20;86.50
27368;DHT22;14839;48.106;11.618;2023-09-12T19:11:03;24.00;86.60
27368;DHT22;14839;48.106;11.618;2023-09-12T19:13:28;23.90;87.10
27368;DHT22;14839;48.106;11.618;2023-09-12T19:15:54;23.80;88.00
27368;DHT22;14839;48.106;11.618;2023-09-12T19:18:19;23.70;88.40
27368;DHT22;14839;48.106;11.618;2023-09-12T19:20:45;23.50;89.60
27368;DHT22;14839;48.106;11.618;2023-09-12T19:23:11;23.40;90.20